sensor_id;sensor_type;location;lat;lon;timestamp;temperature;humidity
22827;DHT22;11580;52.562;13.418;2023-04-19T00:00:47;10.70;32.00
22827;DHT22;11580;52.562;13.418;2023-04-19T00:03:16;10.70;32.60
22827;DHT22;11580;52.562;13.418;2023-04-19T00:05:44;10.70;31.10
22827;DHT22;11580;52.562;13.418;2023-04-19T00:08:11;10.70;32.30
22827;DHT22;11580;52.562;13.418;2023-04-19T00:10:38;10.80;31.60
22827;DHT22;11580;52.562;13.418;2023-04-19T00:13:05;10.80;31.20
22827;DHT22;11580;52.562;13.418;2023-04-19T00:15:32;10.80;31.30
22827;DHT22;11580;52.562;13.418;2023-04-19T00:18:00;10.80;31.00
22827;DHT22;11580;52.562;13.418;2023-04-19T00:20:28;10.80;30.90
22827;DHT22;11580;52.562;13.418;2023-04-19T00:22:55;10.90;30.10
22827;DHT22;11580;52.562;13.418;2023-04-19T00:25:23;10.90;30.50
22827;DHT22;11580;52.562;13.418;2023-04-19T00:27:51;10.90;30.40
22827;DHT22;11580;52.562;13.418;2023-04-19T00:30:19;10.90;30.20
22827;DHT22;11580;52.562;13.418;2023-04-19T00:32:46;10.90;30.00
22827;DHT22;11580;52.562;13.418;2023-04-19T00:35:14;10.90;29.90
22827;DHT22;11580;52.562;13.418;2023-04-19T00:37:42;10.90;29.60
22827;DHT22;11580;52.562;13.418;2023-04-19T00:40:12;10.90;29.50
22827;DHT22;11580;52.562;13.418;2023-04-19T00:42:39;10.90;29.20
22827;DHT22;11580;52.562;13.418;2023-04-19T00:45:07;10.90;29.20
22827;DHT22;11580;52.562;13.418;2023-04-19T00:47:35;10.90;29.10
22827;DHT22;11580;52.562;13.418;2023-04-19T00:50:04;10.80;29.60
22827;DHT22;11580;52.562;13.418;2023-04-19T00:52:33;10.80;29.10
22827;DHT22;11580;52.562;13.418;2023-04-19T00:55:02;10.80;29.10
22827;DHT22;11580;52.562;13.418;2023-04-19T00:57:30;10.80;29.10
22827;DHT22;11580;52.562;13.418;2023-04-19T00:59:58;10.70;29.00
22827;DHT22;11580;52.562;13.418;2023-04-19T01:02:25;10.70;29.00
22827;DHT22;11580;52.562;13.418;2023-04-19T01:04:52;10.70;29.00
22827;DHT22;11580;52.562;13.418;2023-04-19T01:07:20;10.60;29.40
22827;DHT22;11580;52.562;13.418;2023-04-19T01:09:47;10.50;28.90
22827;DHT22;11580;52.562;13.418;2023-04-19T01:12:16;10.50;28.90
22827;DHT22;11580;52.562;13.418;2023-04-19T01:14:43;10.40;29.00
22827;DHT22;11580;52.562;13.418;2023-04-19T01:17:11;10.40;28.80
22827;DHT22;11580;52.562;13.418;2023-04-19T01:19:45;10.30;29.30
22827;DHT22;11580;52.562;13.418;2023-04-19T01:22:17;10.20;27.80
22827;DHT22;11580;52.562;13.418;2023-04-19T01:24:46;10.20;28.40
22827;DHT22;11580;52.562;13.418;2023-04-19T01:27:13;10.10;28.60
22827;DHT22;11580;52.562;13.418;2023-04-19T01:29:42;10.00;28.50
22827;DHT22;11580;52.562;13.418;2023-04-19T01:32:09;9.90;29.80
22827;DHT22;11580;52.562;13.418;2023-04-19T01:34:37;9.90;29.50
22827;DHT22;11580;52.562;13.418;2023-04-19T01:37:04;9.80;29.50
22827;DHT22;11580;52.562;13.418;2023-04-19T01:39:34;9.70;29.60
22827;DHT22;11580;52.562;13.418;2023-04-19T01:42:01;9.60;29.40
22827;DHT22;11580;52.562;13.418;2023-04-19T01:44:29;9.60;29.70
22827;DHT22;11580;52.562;13.418;2023-04-19T01:46:56;9.50;30.30
22827;DHT22;11580;52.562;13.418;2023-04-19T01:49:23;9.50;29.80
22827;DHT22;11580;52.562;13.418;2023-04-19T01:51:50;9.40;29.90
22827;DHT22;11580;52.562;13.418;2023-04-19T01:54:19;9.40;30.60
22827;DHT22;11580;52.562;13.418;2023-04-19T01:56:50;9.40;30.00
22827;DHT22;11580;52.562;13.418;2023-04-19T01:59:17;9.30;30.40
22827;DHT22;11580;52.562;13.418;2023-04-19T02:01:44;9.30;30.00
22827;DHT22;11580;52.562;13.418;2023-04-19T02:04:11;9.20;30.00
22827;DHT22;11580;52.562;13.418;2023-04-19T02:06:39;9.20;30.00
22827;DHT22;11580;52.562;13.418;2023-04-19T02:09:06;9.20;30.10
22827;DHT22;11580;52.562;13.418;2023-04-19T02:11:34;9.10;30.00
22827;DHT22;11580;52.562;13.418;2023-04-19T02:14:02;9.10;30.10
22827;DHT22;11580;52.562;13.418;2023-04-19T02:16:29;9.10;30.00
22827;DHT22;11580;52.562;13.418;2023-04-19T02:18:56;9.00;30.70
22827;DHT22;11580;52.562;13.418;2023-04-19T02:21:24;9.00;30.90
22827;DHT22;11580;52.562;13.418;2023-04-19T02:23:52;9.00;30.20
22827;DHT22;11580;52.562;13.418;2023-04-19T02:26:19;9.00;31.00
22827;DHT22;11580;52.562;13.418;2023-04-19T02:28:46;8.90;30.30
22827;DHT22;11580;52.562;13.418;2023-04-19T02:31:15;8.80;31.00
22827;DHT22;11580;52.562;13.418;2023-04-19T02:33:42;8.80;30.10
22827;DHT22;11580;52.562;13.418;2023-04-19T02:36:11;8.80;30.30
22827;DHT22;11580;52.562;13.418;2023-04-19T02:38:38;8.70;30.40
22827;DHT22;11580;52.562;13.418;2023-04-19T02:41:06;8.70;30.50
22827;DHT22;11580;52.562;13.418;2023-04-19T02:43:33;8.60;30.60
22827;DHT22;11580;52.562;13.418;2023-04-19T02:46:01;8.60;30.70
22827;DHT22;11580;52.562;13.418;2023-04-19T02:48:30;8.60;30.80
22827;DHT22;11580;52.562;13.418;2023-04-19T02:50:57;8.50;30.60
22827;DHT22;11580;52.562;13.418;2023-04-19T02:53:25;8.50;31.00
22827;DHT22;11580;52.562;13.418;2023-04-19T02:55:52;8.40;30.90
22827;DHT22;11580;52.562;13.418;2023-04-19T02:58:19;8.40;31.70
22827;DHT22;11580;52.562;13.418;2023-04-19T03:01:03;8.40;31.00
22827;DHT22;11580;52.562;13.418;2023-04-19T03:03:32;8.30;31.10
22827;DHT22;11580;52.562;13.418;2023-04-19T03:06:00;8.30;31.00
22827;DHT22;11580;52.562;13.418;2023-04-19T03:08:29;8.30;31.30
22827;DHT22;11580;52.562;13.418;2023-04-19T03:10:56;8.20;31.30
22827;DHT22;11580;52.562;13.418;2023-04-19T03:13:24;8.20;31.40
22827;DHT22;11580;52.562;13.418;2023-04-19T03:15:51;8.10;31.40
22827;DHT22;11580;52.562;13.418;2023-04-19T03:18:22;8.10;32.20
22827;DHT22;11580;52.562;13.418;2023-04-19T03:20:57;8.10;31.60
22827;DHT22;11580;52.562;13.418;2023-04-19T03:23:28;8.00;31.60
22827;DHT22;11580;52.562;13.418;2023-04-19T03:25:59;8.00;31.90
22827;DHT22;11580;52.562;13.418;2023-04-19T03:28:36;7.90;32.60
22827;DHT22;11580;52.562;13.418;2023-04-19T03:31:16;7.90;32.00
22827;DHT22;11580;52.562;13.418;2023-04-19T03:33:48;7.90;32.10
22827;DHT22;11580;52.562;13.418;2023-04-19T03:36:17;7.80;32.20
22827;DHT22;11580;52.562;13.418;2023-04-19T03:38:45;7.80;32.20
22827;DHT22;11580;52.562;13.418;2023-04-19T03:41:18;7.80;32.40
22827;DHT22;11580;52.562;13.418;2023-04-19T03:43:46;7.70;32.80
22827;DHT22;11580;52.562;13.418;2023-04-19T03:46:14;7.50;32.50
22827;DHT22;11580;52.562;13.418;2023-04-19T03:48:41;7.70;32.80
22827;DHT22;11580;52.562;13.418;2023-04-19T03:51:08;7.70;33.00
22827;DHT22;11580;52.562;13.418;2023-04-19T03:53:37;7.70;33.20
22827;DHT22;11580;52.562;13.418;2023-04-19T03:56:04;7.60;33.20
22827;DHT22;11580;52.562;13.418;2023-04-19T03:58:32;7.70;33.20
22827;DHT22;11580;52.562;13.418;2023-04-19T04:01:05;7.60;33.20
22827;DHT22;11580;52.562;13.418;2023-04-19T04:03:33;7.70;33.90
22827;DHT22;11580;52.562;13.418;2023-04-19T04:06:03;7.60;33.20
22827;DHT22;11580;52.562;13.418;2023-04-19T04:08:31;7.60;33.50
22827;DHT22;11580;52.562;13.418;2023-04-19T04:10:59;7.60;33.80
22827;DHT22;11580;52.562;13.418;2023-04-19T04:13:26;7.60;34.10
22827;DHT22;11580;52.562;13.418;2023-04-19T04:16:06;7.70;35.30
22827;DHT22;11580;52.562;13.418;2023-04-19T04:18:34;7.80;35.00
22827;DHT22;11580;52.562;13.418;2023-04-19T04:21:04;7.80;35.00
22827;DHT22;11580;52.562;13.418;2023-04-19T04:23:35;7.90;35.00
22827;DHT22;11580;52.562;13.418;2023-04-19T04:26:05;8.00;35.90
22827;DHT22;11580;52.562;13.418;2023-04-19T04:28:55;8.20;35.90
22827;DHT22;11580;52.562;13.418;2023-04-19T04:31:23;8.30;35.30
22827;DHT22;11580;52.562;13.418;2023-04-19T04:33:50;8.50;35.30
22827;DHT22;11580;52.562;13.418;2023-04-19T04:36:20;8.60;35.10
22827;DHT22;11580;52.562;13.418;2023-04-19T04:38:49;8.80;34.90
22827;DHT22;11580;52.562;13.418;2023-04-19T04:41:18;8.90;35.40
22827;DHT22;11580;52.562;13.418;2023-04-19T04:43:47;9.00;34.30
22827;DHT22;11580;52.562;13.418;2023-04-19T04:46:17;9.10;34.30
22827;DHT22;11580;52.562;13.418;2023-04-19T04:48:44;9.10;34.60
22827;DHT22;11580;52.562;13.418;2023-04-19T04:51:12;9.20;33.90
22827;DHT22;11580;52.562;13.418;2023-04-19T04:53:40;9.20;33.90
22827;DHT22;11580;52.562;13.418;2023-04-19T04:56:09;9.20;33.90
22827;DHT22;11580;52.562;13.418;2023-04-19T04:58:37;9.10;33.90
22827;DHT22;11580;52.562;13.418;2023-04-19T05:01:07;9.10;33.80
22827;DHT22;11580;52.562;13.418;2023-04-19T05:03:38;9.10;34.70
22827;DHT22;11580;52.562;13.418;2023-04-19T05:06:10;9.10;34.20
22827;DHT22;11580;52.562;13.418;2023-04-19T05:08:37;9.00;34.30
22827;DHT22;11580;52.562;13.418;2023-04-19T05:11:13;9.00;34.30
22827;DHT22;11580;52.562;13.418;2023-04-19T05:13:43;9.00;34.80
22827;DHT22;11580;52.562;13.418;2023-04-19T05:16:11;9.00;34.30
22827;DHT22;11580;52.562;13.418;2023-04-19T05:18:41;8.90;34.20
22827;DHT22;11580;52.562;13.418;2023-04-19T05:21:09;8.90;34.50
22827;DHT22;11580;52.562;13.418;2023-04-19T05:23:37;8.90;34.70
22827;DHT22;11580;52.562;13.418;2023-04-19T05:26:05;8.90;35.50
22827;DHT22;11580;52.562;13.418;2023-04-19T05:28:32;8.80;34.70
22827;DHT22;11580;52.562;13.418;2023-04-19T05:31:21;8.80;34.80
22827;DHT22;11580;52.562;13.418;2023-04-19T05:34:05;8.80;34.80
22827;DHT22;11580;52.562;13.418;2023-04-19T05:36:32;8.80;35.00
22827;DHT22;11580;52.562;13.418;2023-04-19T05:39:00;8.90;35.30
22827;DHT22;11580;52.562;13.418;2023-04-19T05:41:27;8.90;35.40
22827;DHT22;11580;52.562;13.418;2023-04-19T05:43:54;8.90;35.40
22827;DHT22;11580;52.562;13.418;2023-04-19T05:46:23;8.90;35.30
22827;DHT22;11580;52.562;13.418;2023-04-19T05:48:50;8.90;35.20
22827;DHT22;11580;52.562;13.418;2023-04-19T05:51:26;8.90;35.40
22827;DHT22;11580;52.562;13.418;2023-04-19T05:54:13;9.00;36.20
22827;DHT22;11580;52.562;13.418;2023-04-19T05:56:45;9.00;35.60
22827;DHT22;11580;52.562;13.418;2023-04-19T05:59:13;9.00;35.60
22827;DHT22;11580;52.562;13.418;2023-04-19T06:01:42;9.10;35.60
22827;DHT22;11580;52.562;13.418;2023-04-19T06:04:09;9.10;35.50
22827;DHT22;11580;52.562;13.418;2023-04-19T06:06:36;9.20;36.40
22827;DHT22;11580;52.562;13.418;2023-04-19T06:09:04;9.20;35.60
22827;DHT22;11580;52.562;13.418;2023-04-19T06:11:32;9.30;35.70
22827;DHT22;11580;52.562;13.418;2023-04-19T06:13:59;9.30;35.60
22827;DHT22;11580;52.562;13.418;2023-04-19T06:16:27;9.40;35.50
22827;DHT22;11580;52.562;13.418;2023-04-19T06:18:56;9.40;36.20
22827;DHT22;11580;52.562;13.418;2023-04-19T06:21:23;9.50;35.80
22827;DHT22;11580;52.562;13.418;2023-04-19T06:23:51;9.50;35.30
22827;DHT22;11580;52.562;13.418;2023-04-19T06:26:18;9.60;35.10
22827;DHT22;11580;52.562;13.418;2023-04-19T06:28:46;9.60;35.20
22827;DHT22;11580;52.562;13.418;2023-04-19T06:31:13;9.70;35.80
22827;DHT22;11580;52.562;13.418;2023-04-19T06:33:40;9.80;35.00
22827;DHT22;11580;52.562;13.418;2023-04-19T06:36:09;9.60;34.80
22827;DHT22;11580;52.562;13.418;2023-04-19T06:38:37;9.90;35.00
22827;DHT22;11580;52.562;13.418;2023-04-19T06:41:06;10.00;34.20
22827;DHT22;11580;52.562;13.418;2023-04-19T06:43:33;10.10;34.90
22827;DHT22;11580;52.562;13.418;2023-04-19T06:46:02;10.10;34.20
22827;DHT22;11580;52.562;13.418;2023-04-19T06:48:30;10.30;34.30
22827;DHT22;11580;52.562;13.418;2023-04-19T06:50:59;10.30;35.00
22827;DHT22;11580;52.562;13.418;2023-04-19T06:53:27;10.40;33.90
22827;DHT22;11580;52.562;13.418;2023-04-19T06:55:57;10.50;33.20
22827;DHT22;11580;52.562;13.418;2023-04-19T06:58:26;10.60;32.40
22827;DHT22;11580;52.562;13.418;2023-04-19T07:00:53;10.70;33.30
22827;DHT22;11580;52.562;13.418;2023-04-19T07:03:21;10.80;33.20
22827;DHT22;11580;52.562;13.418;2023-04-19T07:05:49;10.80;33.10
22827;DHT22;11580;52.562;13.418;2023-04-19T07:08:17;10.90;32.70
22827;DHT22;11580;52.562;13.418;2023-04-19T07:10:46;11.00;32.70
22827;DHT22;11580;52.562;13.418;2023-04-19T07:13:13;11.10;32.10
22827;DHT22;11580;52.562;13.418;2023-04-19T07:15:40;11.20;32.30
22827;DHT22;11580;52.562;13.418;2023-04-19T07:18:07;11.30;31.80
22827;DHT22;11580;52.562;13.418;2023-04-19T07:20:35;11.50;31.80
22827;DHT22;11580;52.562;13.418;2023-04-19T07:23:04;11.40;31.60
22827;DHT22;11580;52.562;13.418;2023-04-19T07:25:31;11.50;31.10
22827;DHT22;11580;52.562;13.418;2023-04-19T07:27:59;11.60;30.90
22827;DHT22;11580;52.562;13.418;2023-04-19T07:30:26;11.70;30.50
22827;DHT22;11580;52.562;13.418;2023-04-19T07:32:54;11.80;31.10
22827;DHT22;11580;52.562;13.418;2023-04-19T07:35:21;11.90;30.70
22827;DHT22;11580;52.562;13.418;2023-04-19T07:37:48;12.10;31.30
22827;DHT22;11580;52.562;13.418;2023-04-19T07:40:15;12.10;29.90
22827;DHT22;11580;52.562;13.418;2023-04-19T07:42:43;12.10;29.90
22827;DHT22;11580;52.562;13.418;2023-04-19T07:45:12;12.20;30.20
22827;DHT22;11580;52.562;13.418;2023-04-19T07:47:39;12.30;29.00
22827;DHT22;11580;52.562;13.418;2023-04-19T07:50:07;12.40;29.80
22827;DHT22;11580;52.562;13.418;2023-04-19T07:52:36;12.40;28.30
22827;DHT22;11580;52.562;13.418;2023-04-19T07:55:04;12.50;28.80
22827;DHT22;11580;52.562;13.418;2023-04-19T07:57:34;12.60;28.40
22827;DHT22;11580;52.562;13.418;2023-04-19T08:00:01;12.60;28.40
22827;DHT22;11580;52.562;13.418;2023-04-19T08:02:43;12.70;28.60
22827;DHT22;11580;52.562;13.418;2023-04-19T08:05:10;12.80;27.60
22827;DHT22;11580;52.562;13.418;2023-04-19T08:07:38;12.90;28.10
22827;DHT22;11580;52.562;13.418;2023-04-19T08:10:06;13.00;28.10
22827;DHT22;11580;52.562;13.418;2023-04-19T08:12:35;13.00;27.40
22827;DHT22;11580;52.562;13.418;2023-04-19T08:15:03;13.10;27.00
22827;DHT22;11580;52.562;13.418;2023-04-19T08:17:33;13.20;27.50
22827;DHT22;11580;52.562;13.418;2023-04-19T08:20:02;13.20;27.20
22827;DHT22;11580;52.562;13.418;2023-04-19T08:22:31;13.30;26.70
22827;DHT22;11580;52.562;13.418;2023-04-19T08:24:58;13.40;26.70
22827;DHT22;11580;52.562;13.418;2023-04-19T08:27:25;13.40;27.10
22827;DHT22;11580;52.562;13.418;2023-04-19T08:29:52;13.60;27.60
22827;DHT22;11580;52.562;13.418;2023-04-19T08:32:19;13.60;26.90
22827;DHT22;11580;52.562;13.418;2023-04-19T08:34:47;13.70;27.00
22827;DHT22;11580;52.562;13.418;2023-04-19T08:37:15;14.00;27.00
22827;DHT22;11580;52.562;13.418;2023-04-19T08:39:43;13.90;26.30
22827;DHT22;11580;52.562;13.418;2023-04-19T08:42:10;14.00;26.80
22827;DHT22;11580;52.562;13.418;2023-04-19T08:44:38;14.10;26.20
22827;DHT22;11580;52.562;13.418;2023-04-19T08:47:06;14.20;25.50
22827;DHT22;11580;52.562;13.418;2023-04-19T08:49:34;14.30;25.50
22827;DHT22;11580;52.562;13.418;2023-04-19T08:52:03;14.40;25.40
22827;DHT22;11580;52.562;13.418;2023-04-19T08:54:34;14.60;25.10
22827;DHT22;11580;52.562;13.418;2023-04-19T08:57:02;14.70;24.60
22827;DHT22;11580;52.562;13.418;2023-04-19T08:59:29;14.80;25.10
22827;DHT22;11580;52.562;13.418;2023-04-19T09:02:00;14.90;25.50
22827;DHT22;11580;52.562;13.418;2023-04-19T09:04:28;15.00;24.20
22827;DHT22;11580;52.562;13.418;2023-04-19T09:06:55;15.20;24.90
22827;DHT22;11580;52.562;13.418;2023-04-19T09:09:24;15.30;24.80
22827;DHT22;11580;52.562;13.418;2023-04-19T09:11:54;15.40;24.90
22827;DHT22;11580;52.562;13.418;2023-04-19T09:14:22;15.40;23.90
22827;DHT22;11580;52.562;13.418;2023-04-19T09:16:49;15.50;23.40
22827;DHT22;11580;52.562;13.418;2023-04-19T09:19:17;15.50;23.60
22827;DHT22;11580;52.562;13.418;2023-04-19T09:21:45;15.50;22.90
22827;DHT22;11580;52.562;13.418;2023-04-19T09:24:16;15.50;23.10
22827;DHT22;11580;52.562;13.418;2023-04-19T09:26:54;15.50;23.30
22827;DHT22;11580;52.562;13.418;2023-04-19T09:29:22;15.50;22.50
22827;DHT22;11580;52.562;13.418;2023-04-19T09:31:58;15.60;23.10
22827;DHT22;11580;52.562;13.418;2023-04-19T09:34:25;15.60;22.40
22827;DHT22;11580;52.562;13.418;2023-04-19T09:36:55;15.70;23.20
22827;DHT22;11580;52.562;13.418;2023-04-19T09:39:30;15.70;23.10
22827;DHT22;11580;52.562;13.418;2023-04-19T09:41:59;15.70;21.70
22827;DHT22;11580;52.562;13.418;2023-04-19T09:44:27;15.70;22.50
22827;DHT22;11580;52.562;13.418;2023-04-19T09:46:54;15.60;22.50
22827;DHT22;11580;52.562;13.418;2023-04-19T09:49:22;15.60;23.00
22827;DHT22;11580;52.562;13.418;2023-04-19T09:51:52;15.50;22.40
22827;DHT22;11580;52.562;13.418;2023-04-19T09:54:22;15.50;22.40
22827;DHT22;11580;52.562;13.418;2023-04-19T09:56:52;15.50;22.40
22827;DHT22;11580;52.562;13.418;2023-04-19T09:59:20;15.50;22.40
22827;DHT22;11580;52.562;13.418;2023-04-19T10:01:52;15.50;22.40
22827;DHT22;11580;52.562;13.418;2023-04-19T10:04:21;15.50;22.00
22827;DHT22;11580;52.562;13.418;2023-04-19T10:06:49;15.40;22.30
22827;DHT22;11580;52.562;13.418;2023-04-19T10:09:17;15.40;21.90
22827;DHT22;11580;52.562;13.418;2023-04-19T10:11:47;15.40;21.40
22827;DHT22;11580;52.562;13.418;2023-04-19T10:14:17;15.40;21.90
22827;DHT22;11580;52.562;13.418;2023-04-19T10:16:49;15.40;22.30
22827;DHT22;11580;52.562;13.418;2023-04-19T10:19:20;15.40;22.30
22827;DHT22;11580;52.562;13.418;2023-04-19T10:21:49;15.50;22.40
22827;DHT22;11580;52.562;13.418;2023-04-19T10:24:17;15.50;21.70
22827;DHT22;11580;52.562;13.418;2023-04-19T10:27:06;15.50;22.00
22827;DHT22;11580;52.562;13.418;2023-04-19T10:29:58;15.50;21.40
22827;DHT22;11580;52.562;13.418;2023-04-19T10:32:29;15.50;22.30
22827;DHT22;11580;52.562;13.418;2023-04-19T10:35:07;15.50;21.80
22827;DHT22;11580;52.562;13.418;2023-04-19T10:37:39;15.50;21.50
22827;DHT22;11580;52.562;13.418;2023-04-19T10:40:08;15.50;21.20
22827;DHT22;11580;52.562;13.418;2023-04-19T10:45:48;15.50;22.30
22827;DHT22;11580;52.562;13.418;2023-04-19T10:48:32;15.60;22.40
22827;DHT22;11580;52.562;13.418;2023-04-19T10:51:07;15.60;22.10
22827;DHT22;11580;52.562;13.418;2023-04-19T10:53:53;15.70;22.50
22827;DHT22;11580;52.562;13.418;2023-04-19T10:56:58;15.70;22.00
22827;DHT22;11580;52.562;13.418;2023-04-19T10:59:29;15.80;22.60
22827;DHT22;11580;52.562;13.418;2023-04-19T11:01:59;15.90;23.20
22827;DHT22;11580;52.562;13.418;2023-04-19T11:07:40;16.00;22.20
22827;DHT22;11580;52.562;13.418;2023-04-19T11:10:09;16.00;22.20
22827;DHT22;11580;52.562;13.418;2023-04-19T11:12:41;16.00;22.30
22827;DHT22;11580;52.562;13.418;2023-04-19T11:15:09;16.00;21.70
22827;DHT22;11580;52.562;13.418;2023-04-19T11:17:38;16.10;22.80
22827;DHT22;11580;52.562;13.418;2023-04-19T11:20:07;16.10;22.70
22827;DHT22;11580;52.562;13.418;2023-04-19T11:22:37;16.20;21.80
22827;DHT22;11580;52.562;13.418;2023-04-19T11:25:07;16.20;22.00
22827;DHT22;11580;52.562;13.418;2023-04-19T11:27:37;16.20;22.30
22827;DHT22;11580;52.562;13.418;2023-04-19T11:30:06;16.30;22.90
22827;DHT22;11580;52.562;13.418;2023-04-19T11:32:35;16.30;22.70
22827;DHT22;11580;52.562;13.418;2023-04-19T11:35:08;16.40;22.50
22827;DHT22;11580;52.562;13.418;2023-04-19T11:37:37;16.60;22.00
22827;DHT22;11580;52.562;13.418;2023-04-19T11:40:06;16.60;22.30
22827;DHT22;11580;52.562;13.418;2023-04-19T11:42:34;16.70;22.00
22827;DHT22;11580;52.562;13.418;2023-04-19T11:45:02;16.80;22.10
22827;DHT22;11580;52.562;13.418;2023-04-19T11:47:31;16.90;21.90
22827;DHT22;11580;52.562;13.418;2023-04-19T11:50:33;16.90;21.80
22827;DHT22;11580;52.562;13.418;2023-04-19T11:53:11;17.00;21.20
22827;DHT22;11580;52.562;13.418;2023-04-19T11:55:44;17.00;20.40
22827;DHT22;11580;52.562;13.418;2023-04-19T11:58:26;17.00;20.90
22827;DHT22;11580;52.562;13.418;2023-04-19T12:00:57;17.00;20.60
22827;DHT22;11580;52.562;13.418;2023-04-19T12:03:31;17.00;22.50
22827;DHT22;11580;52.562;13.418;2023-04-19T12:06:01;17.10;22.60
22827;DHT22;11580;52.562;13.418;2023-04-19T12:08:34;17.20;21.40
22827;DHT22;11580;52.562;13.418;2023-04-19T12:11:03;17.30;22.40
22827;DHT22;11580;52.562;13.418;2023-04-19T12:13:31;17.30;21.20
22827;DHT22;11580;52.562;13.418;2023-04-19T12:15:59;17.40;21.30
22827;DHT22;11580;52.562;13.418;2023-04-19T12:18:27;17.40;21.00
22827;DHT22;11580;52.562;13.418;2023-04-19T12:21:10;17.40;21.20
22827;DHT22;11580;52.562;13.418;2023-04-19T12:23:38;17.50;20.90
22827;DHT22;11580;52.562;13.418;2023-04-19T12:26:05;17.50;21.40
22827;DHT22;11580;52.562;13.418;2023-04-19T12:28:32;17.50;21.40
22827;DHT22;11580;52.562;13.418;2023-04-19T12:31:00;17.50;21.00
22827;DHT22;11580;52.562;13.418;2023-04-19T12:33:27;17.50;20.60
22827;DHT22;11580;52.562;13.418;2023-04-19T12:35:54;17.50;20.60
22827;DHT22;11580;52.562;13.418;2023-04-19T12:38:22;17.50;21.20
22827;DHT22;11580;52.562;13.418;2023-04-19T12:40:50;17.40;20.50
22827;DHT22;11580;52.562;13.418;2023-04-19T12:43:17;17.40;20.90
22827;DHT22;11580;52.562;13.418;2023-04-19T12:45:44;17.30;21.00
22827;DHT22;11580;52.562;13.418;2023-04-19T12:48:11;17.30;21.50
22827;DHT22;11580;52.562;13.418;2023-04-19T12:50:38;17.20;20.80
22827;DHT22;11580;52.562;13.418;2023-04-19T12:53:05;17.20;20.30
22827;DHT22;11580;52.562;13.418;2023-04-19T12:55:35;17.10;20.40
22827;DHT22;11580;52.562;13.418;2023-04-19T12:58:02;17.00;20.10
22827;DHT22;11580;52.562;13.418;2023-04-19T13:00:29;16.90;21.20
22827;DHT22;11580;52.562;13.418;2023-04-19T13:02:56;16.90;21.50
22827;DHT22;11580;52.562;13.418;2023-04-19T13:05:24;16.90;21.40
22827;DHT22;11580;52.562;13.418;2023-04-19T13:07:51;16.90;20.80
22827;DHT22;11580;52.562;13.418;2023-04-19T13:10:18;17.00;21.30
22827;DHT22;11580;52.562;13.418;2023-04-19T13:12:47;17.00;21.60
22827;DHT22;11580;52.562;13.418;2023-04-19T13:15:14;17.10;21.30
22827;DHT22;11580;52.562;13.418;2023-04-19T13:17:41;17.30;21.30
22827;DHT22;11580;52.562;13.418;2023-04-19T13:20:09;17.40;20.60
22827;DHT22;11580;52.562;13.418;2023-04-19T13:22:36;17.50;19.90
22827;DHT22;11580;52.562;13.418;2023-04-19T13:25:04;17.60;19.90
22827;DHT22;11580;52.562;13.418;2023-04-19T13:27:32;17.70;19.70
22827;DHT22;11580;52.562;13.418;2023-04-19T13:30:00;17.80;20.10
22827;DHT22;11580;52.562;13.418;2023-04-19T13:32:28;17.80;19.90
22827;DHT22;11580;52.562;13.418;2023-04-19T13:34:55;17.90;19.40
22827;DHT22;11580;52.562;13.418;2023-04-19T13:37:23;17.90;18.90
22827;DHT22;11580;52.562;13.418;2023-04-19T13:39:50;17.90;18.80
22827;DHT22;11580;52.562;13.418;2023-04-19T13:42:17;17.90;18.90
22827;DHT22;11580;52.562;13.418;2023-04-19T13:44:45;17.80;19.20
22827;DHT22;11580;52.562;13.418;2023-04-19T13:47:13;17.80;19.40
22827;DHT22;11580;52.562;13.418;2023-04-19T13:49:40;17.80;18.80
22827;DHT22;11580;52.562;13.418;2023-04-19T13:52:08;17.70;19.10
22827;DHT22;11580;52.562;13.418;2023-04-19T13:54:37;17.60;19.30
22827;DHT22;11580;52.562;13.418;2023-04-19T13:57:04;17.50;19.00
22827;DHT22;11580;52.562;13.418;2023-04-19T13:59:31;17.40;19.00
22827;DHT22;11580;52.562;13.418;2023-04-19T14:01:58;17.30;19.40
22827;DHT22;11580;52.562;13.418;2023-04-19T14:04:27;17.20;19.60
22827;DHT22;11580;52.562;13.418;2023-04-19T14:06:54;17.10;19.70
22827;DHT22;11580;52.562;13.418;2023-04-19T14:09:21;17.00;19.50
22827;DHT22;11580;52.562;13.418;2023-04-19T14:11:49;16.90;20.40
22827;DHT22;11580;52.562;13.418;2023-04-19T14:14:16;16.80;20.20
22827;DHT22;11580;52.562;13.418;2023-04-19T14:16:43;16.80;20.20
22827;DHT22;11580;52.562;13.418;2023-04-19T14:19:11;16.80;20.60
22827;DHT22;11580;52.562;13.418;2023-04-19T14:21:40;16.80;20.20
22827;DHT22;11580;52.562;13.418;2023-04-19T14:24:07;16.90;20.30
22827;DHT22;11580;52.562;13.418;2023-04-19T14:26:34;16.90;19.80
22827;DHT22;11580;52.562;13.418;2023-04-19T14:29:01;16.90;20.70
22827;DHT22;11580;52.562;13.418;2023-04-19T14:31:28;16.90;20.20
22827;DHT22;11580;52.562;13.418;2023-04-19T14:33:56;16.90;20.10
22827;DHT22;11580;52.562;13.418;2023-04-19T14:36:24;16.80;20.00
22827;DHT22;11580;52.562;13.418;2023-04-19T14:38:53;16.80;20.00
22827;DHT22;11580;52.562;13.418;2023-04-19T14:41:20;16.70;20.00
22827;DHT22;11580;52.562;13.418;2023-04-19T14:43:48;16.60;20.20
22827;DHT22;11580;52.562;13.418;2023-04-19T14:46:16;16.50;20.10
22827;DHT22;11580;52.562;13.418;2023-04-19T14:48:43;16.40;20.10
22827;DHT22;11580;52.562;13.418;2023-04-19T14:51:10;16.30;20.80
22827;DHT22;11580;52.562;13.418;2023-04-19T14:53:37;16.20;20.30
22827;DHT22;11580;52.562;13.418;2023-04-19T14:56:07;16.00;20.60
22827;DHT22;11580;52.562;13.418;2023-04-19T14:58:34;15.90;22.70
22827;DHT22;11580;52.562;13.418;2023-04-19T15:01:09;15.70;23.50
22827;DHT22;11580;52.562;13.418;2023-04-19T15:03:37;15.40;26.10
22827;DHT22;11580;52.562;13.418;2023-04-19T15:06:05;15.10;25.00
22827;DHT22;11580;52.562;13.418;2023-04-19T15:08:32;14.70;25.50
22827;DHT22;11580;52.562;13.418;2023-04-19T15:10:59;14.30;26.90
22827;DHT22;11580;52.562;13.418;2023-04-19T15:13:28;13.90;26.90
22827;DHT22;11580;52.562;13.418;2023-04-19T15:15:55;13.50;27.90
22827;DHT22;11580;52.562;13.418;2023-04-19T15:18:23;13.20;28.70
22827;DHT22;11580;52.562;13.418;2023-04-19T15:20:50;12.90;29.50
22827;DHT22;11580;52.562;13.418;2023-04-19T15:23:17;12.50;30.00
22827;DHT22;11580;52.562;13.418;2023-04-19T15:25:46;12.20;30.00
22827;DHT22;11580;52.562;13.418;2023-04-19T15:28:14;11.90;30.40
22827;DHT22;11580;52.562;13.418;2023-04-19T15:30:43;11.60;31.60
22827;DHT22;11580;52.562;13.418;2023-04-19T15:33:10;11.40;31.50
22827;DHT22;11580;52.562;13.418;2023-04-19T15:35:37;11.10;31.80
22827;DHT22;11580;52.562;13.418;2023-04-19T15:38:04;10.90;32.40